createdAt,value
2023-05-21T00:01:25.671Z,48734.28
2023-05-21T00:03:52.288Z,48761.72
2023-05-21T00:06:21.288Z,48761.72
2023-05-21T00:08:48.118Z,48753.88
2023-05-21T00:11:14.603Z,48730.38
2023-05-21T00:13:41.072Z,48746.03
2023-05-21T00:16:11.428Z,48728.41
2023-05-21T00:18:40.434Z,48765.63
2023-05-21T00:21:06.992Z,48746.03
2023-05-21T00:23:34.225Z,48738.19
2023-05-21T00:26:01.517Z,48746.03
2023-05-21T00:28:28.008Z,48742.13
2023-05-21T00:30:54.739Z,48761.72
2023-05-21T00:33:22.296Z,48769.53
2023-05-21T00:35:48.758Z,48753.88
2023-05-21T00:38:17.754Z,48765.63
2023-05-21T00:40:45.023Z,48769.53
2023-05-21T00:43:14.929Z,48763.66
2023-05-21T00:45:46.828Z,48781.31
2023-05-21T00:48:14.805Z,48783.25
2023-05-21T00:50:43.526Z,48742.13
2023-05-21T00:53:10.809Z,48746.03
2023-05-21T00:55:39.805Z,48798.94
2023-05-21T00:58:07.381Z,48765.63
2023-05-21T01:00:34.954Z,48761.72
2023-05-21T01:03:05.196Z,48744.06
2023-05-21T01:05:33.197Z,48765.63
2023-05-21T01:08:00.495Z,48781.31
2023-05-21T01:10:27.774Z,48777.38
2023-05-21T01:12:57.717Z,48734.28
2023-05-21T01:15:24.654Z,48767.59
2023-05-21T01:17:52.040Z,48769.53
2023-05-21T01:20:20.544Z,48793.06
2023-05-21T01:22:55.445Z,48777.38
2023-05-21T01:25:23.476Z,48804.81
2023-05-21T01:27:50.944Z,48740.16
2023-05-21T01:30:18.592Z,48796.97
2023-05-21T01:32:55.019Z,48793.06
2023-05-21T01:35:27.180Z,48759.75
2023-05-21T01:38:29.725Z,48781.31
2023-05-21T01:41:05.067Z,48798.94
2023-05-21T01:43:39.076Z,48765.63
2023-05-21T01:46:07.769Z,48773.47
2023-05-21T01:48:35.321Z,48767.59
2023-05-21T01:51:04.951Z,48789.13
2023-05-21T01:53:34.248Z,48761.72
2023-05-21T01:56:00.889Z,48757.78
2023-05-21T01:58:27.334Z,48804.81
2023-05-21T02:00:53.862Z,48781.31
2023-05-21T02:03:22.572Z,48796.97
2023-05-21T02:05:49.311Z,48767.59
2023-05-21T02:08:15.813Z,48781.31
2023-05-21T02:10:42.337Z,48781.31
2023-05-21T02:13:09.091Z,48765.63
2023-05-21T02:15:35.931Z,48796.97
2023-05-21T02:18:03.965Z,48769.53
2023-05-21T02:20:30.916Z,48773.47
2023-05-21T02:22:57.458Z,48773.47
2023-05-21T02:25:29.128Z,48765.63
2023-05-21T02:27:56.784Z,48804.81
2023-05-21T02:30:23.645Z,48814.59
2023-05-21T02:32:51.000Z,48783.25
2023-05-21T02:35:17.848Z,48796.97
2023-05-21T02:37:44.703Z,48785.22
2023-05-21T02:40:13.478Z,48773.47
2023-05-21T02:42:41.894Z,48808.72
2023-05-21T02:45:13.567Z,48785.22
2023-05-21T02:47:41.373Z,48777.38
2023-05-21T02:50:09.376Z,48795.00
2023-05-21T02:52:36.663Z,48791.09
2023-05-21T02:55:03.221Z,48796.97
2023-05-21T02:57:29.765Z,48771.50
2023-05-21T02:59:56.523Z,48773.47
2023-05-21T03:02:26.300Z,48789.13
2023-05-21T03:04:54.072Z,48773.47
2023-05-21T03:07:20.750Z,48771.50
2023-05-21T03:09:48.048Z,48787.19
2023-05-21T03:12:15.310Z,48789.13
2023-05-21T03:14:46.448Z,48777.38
2023-05-21T03:17:17.320Z,48796.97
2023-05-21T03:19:46.378Z,48804.81
2023-05-21T03:22:12.889Z,48820.47
2023-05-21T03:24:39.972Z,48796.97
2023-05-21T03:27:06.808Z,48796.97
2023-05-21T03:29:34.381Z,48806.75
2023-05-21T03:32:01.536Z,48769.53
2023-05-21T03:34:29.115Z,48793.06
2023-05-21T03:36:55.644Z,48793.06
2023-05-21T03:39:22.607Z,48795.00
2023-05-21T03:41:49.118Z,48806.75
2023-05-21T03:44:16.243Z,48804.81
2023-05-21T03:46:43.048Z,48802.84
2023-05-21T03:49:12.301Z,48798.94
2023-05-21T03:51:39.638Z,48793.06
2023-05-21T03:54:06.240Z,48806.75
2023-05-21T03:56:33.741Z,48820.47
2023-05-21T03:59:00.265Z,48820.47
2023-05-21T04:01:28.291Z,48767.59
2023-05-21T04:03:55.099Z,48789.13
2023-05-21T04:06:23.091Z,48796.97
2023-05-21T04:08:49.949Z,48781.31
2023-05-21T04:11:17.826Z,48814.59
2023-05-21T04:13:44.591Z,48820.47
2023-05-21T04:16:14.915Z,48840.06
2023-05-21T04:18:45.646Z,48804.81
2023-05-21T04:21:12.749Z,48804.81
2023-05-21T04:23:40.380Z,48806.75
2023-05-21T04:26:07.709Z,48777.38
2023-05-21T04:28:35.382Z,48816.56
2023-05-21T04:31:02.229Z,48793.06
2023-05-21T04:33:30.385Z,48798.94
2023-05-21T04:35:57.905Z,48818.53
2023-05-21T04:38:24.975Z,48826.34
2023-05-21T04:40:52.333Z,48802.84
2023-05-21T04:43:26.208Z,48816.56
2023-05-21T04:45:55.067Z,48804.81
2023-05-21T04:48:24.792Z,48783.25
2023-05-21T04:50:53.251Z,48789.13
2023-05-21T04:53:23.009Z,48798.94
2023-05-21T04:55:50.943Z,48802.84
2023-05-21T04:58:20.385Z,48808.72
2023-05-21T05:00:49.438Z,48808.72
2023-05-21T05:03:16.543Z,48804.81
2023-05-21T05:05:43.342Z,48781.31
2023-05-21T05:08:10.972Z,48777.38
2023-05-21T05:10:37.926Z,48804.81
2023-05-21T05:13:05.050Z,48785.22
2023-05-21T05:15:32.136Z,48808.72
2023-05-21T05:17:58.817Z,48812.63
2023-05-21T05:20:31.188Z,48806.75
2023-05-21T05:22:57.676Z,48800.88
2023-05-21T05:25:24.437Z,48802.84
2023-05-21T05:27:50.910Z,48796.97
2023-05-21T05:30:17.649Z,48804.81
2023-05-21T05:32:45.919Z,48793.06
2023-05-21T05:35:12.821Z,48777.38
2023-05-21T05:37:39.618Z,48785.22
2023-05-21T05:40:07.591Z,48793.06
2023-05-21T05:42:34.095Z,48796.97
2023-05-21T05:45:00.870Z,48777.38
2023-05-21T05:47:29.605Z,48828.31
2023-05-21T05:49:56.431Z,48796.97
2023-05-21T05:52:23.222Z,48812.63
2023-05-21T05:54:49.981Z,48800.88
2023-05-21T05:57:16.709Z,48785.22
2023-05-21T05:59:43.520Z,48769.53
2023-05-21T06:02:10.158Z,48804.81
2023-05-21T06:04:36.869Z,48773.47
2023-05-21T06:07:05.444Z,48781.31
2023-05-21T06:09:37.298Z,48769.53
2023-05-21T06:12:04.404Z,48793.06
2023-05-21T06:14:31.099Z,48777.38
2023-05-21T06:16:57.568Z,48796.97
2023-05-21T06:19:24.524Z,48812.63
2023-05-21T06:21:51.099Z,48777.38
2023-05-21T06:24:17.882Z,48773.47
2023-05-21T06:26:46.504Z,48789.13
2023-05-21T06:29:15.750Z,48802.84
2023-05-21T06:31:42.183Z,48781.31
2023-05-21T06:34:09.380Z,48796.97
2023-05-21T06:36:35.961Z,48785.22
2023-05-21T06:39:04.413Z,48773.47
2023-05-21T06:41:31.346Z,48785.22
2023-05-21T06:43:58.068Z,48785.22
2023-05-21T06:46:24.617Z,48828.31
2023-05-21T06:48:51.217Z,48812.63
2023-05-21T06:51:17.807Z,48783.25
2023-05-21T06:53:44.853Z,48789.13
2023-05-21T06:56:11.467Z,48773.47
2023-05-21T06:58:38.193Z,48808.72
2023-05-21T07:01:05.479Z,48793.06
2023-05-21T07:03:32.082Z,48783.25
2023-05-21T07:05:58.787Z,48781.31
2023-05-21T07:08:25.626Z,48771.50
2023-05-21T07:10:52.561Z,48789.13
2023-05-21T07:13:19.092Z,48773.47
2023-05-21T07:15:45.673Z,48800.88
2023-05-21T07:18:12.451Z,48781.31
2023-05-21T07:20:39.047Z,48804.81
2023-05-21T07:23:05.524Z,48793.06
2023-05-21T07:25:32.979Z,48791.09
2023-05-21T07:27:59.928Z,48816.56
2023-05-21T07:30:26.495Z,48830.28
2023-05-21T07:32:53.088Z,48804.81
2023-05-21T07:35:20.454Z,48785.22
2023-05-21T07:37:47.854Z,48793.06
2023-05-21T07:40:15.210Z,48808.72
2023-05-21T07:42:41.755Z,48777.38
2023-05-21T07:45:08.559Z,48804.81
2023-05-21T07:47:35.315Z,48800.88
2023-05-21T07:50:01.814Z,48789.13
2023-05-21T07:52:28.283Z,48820.47
2023-05-21T07:54:54.757Z,48824.41
2023-05-21T07:57:23.706Z,48773.47
2023-05-21T07:59:50.196Z,48785.22
2023-05-21T08:02:16.972Z,48806.75
2023-05-21T08:04:44.539Z,48812.63
2023-05-21T08:07:11.039Z,48828.31
2023-05-21T08:09:37.541Z,48828.31
2023-05-21T08:12:04.391Z,48785.22
2023-05-21T08:14:32.335Z,48820.47
2023-05-21T08:17:01.447Z,48796.97
2023-05-21T08:19:28.298Z,48822.44
2023-05-21T08:21:55.140Z,48800.88
2023-05-21T08:24:21.928Z,48808.72
2023-05-21T08:26:50.658Z,48818.53
2023-05-21T08:29:17.456Z,48816.56
2023-05-21T08:31:44.253Z,48820.47
2023-05-21T08:34:12.152Z,48808.72
2023-05-21T08:36:38.809Z,48814.59
2023-05-21T08:39:05.542Z,48785.22
2023-05-21T08:41:35.924Z,48832.22
2023-05-21T08:44:06.245Z,48828.31
2023-05-21T08:46:36.899Z,48796.97
2023-05-21T08:49:03.945Z,48844.00
2023-05-21T08:51:31.419Z,48804.81
2023-05-21T08:54:01.270Z,48820.47
2023-05-21T08:56:31.431Z,48804.81
2023-05-21T08:58:59.714Z,48800.88
2023-05-21T09:01:27.231Z,48800.88
2023-05-21T09:04:04.809Z,48769.53
2023-05-21T09:06:36.720Z,48804.81
2023-05-21T09:09:12.539Z,48785.22
2023-05-21T09:11:39.393Z,48796.97
2023-05-21T09:14:06.834Z,48796.97
2023-05-21T09:16:33.344Z,48812.63
2023-05-21T09:19:04.597Z,48812.63
2023-05-21T09:21:31.753Z,48838.09
2023-05-21T09:24:02.138Z,48840.06
2023-05-21T09:26:28.651Z,48814.59
2023-05-21T09:29:00.880Z,48830.28
2023-05-21T09:31:27.826Z,48820.47
2023-05-21T09:33:55.833Z,48800.88
2023-05-21T09:36:22.777Z,48840.06
2023-05-21T09:38:52.411Z,48820.47
2023-05-21T09:41:32.727Z,48802.84
2023-05-21T09:44:02.812Z,48824.41
2023-05-21T09:46:42.592Z,48800.88
2023-05-21T09:49:30.294Z,48812.63
2023-05-21T09:52:00.312Z,48820.47
2023-05-21T09:54:33.108Z,48816.56
2023-05-21T09:57:03.382Z,48836.16
2023-05-21T09:59:40.584Z,48826.34
2023-05-21T10:02:37.934Z,48847.91
2023-05-21T10:05:09.169Z,48836.16
2023-05-21T10:07:41.701Z,48863.56
2023-05-21T10:10:12.822Z,48804.81
2023-05-21T10:12:44.885Z,48812.63
2023-05-21T10:15:15.742Z,48806.75
2023-05-21T10:17:44.513Z,48836.16
2023-05-21T10:20:12.399Z,48793.06
2023-05-21T10:22:39.982Z,48820.47
2023-05-21T10:25:10.444Z,48840.06
2023-05-21T10:27:37.906Z,48830.28
2023-05-21T10:30:07.057Z,48836.16
2023-05-21T10:32:33.849Z,48816.56
2023-05-21T10:35:02.443Z,48840.06
2023-05-21T10:37:29.797Z,48844.00
2023-05-21T10:39:56.573Z,48820.47
2023-05-21T10:43:02.494Z,48836.16
2023-05-21T10:45:48.208Z,48840.06
2023-05-21T10:48:39.613Z,48832.22
2023-05-21T10:51:32.209Z,48806.75
2023-05-21T10:54:39.451Z,48834.19
2023-05-21T10:57:11.799Z,48828.31
2023-05-21T10:59:44.022Z,48847.91
2023-05-21T11:02:14.132Z,48844.00
2023-05-21T11:04:43.257Z,48836.16
2023-05-21T11:07:10.071Z,48855.75
2023-05-21T11:09:37.827Z,48832.22
2023-05-21T11:12:05.155Z,48816.56
2023-05-21T11:14:43.556Z,48855.75
2023-05-21T11:17:16.511Z,48828.31
2023-05-21T11:19:47.316Z,48836.16
2023-05-21T11:22:25.893Z,48844.00
2023-05-21T11:25:02.125Z,48836.16
2023-05-21T11:27:42.545Z,48840.06
2023-05-21T11:30:18.964Z,48855.75
2023-05-21T11:33:15.654Z,48855.75
2023-05-21T11:35:49.079Z,48863.56
2023-05-21T11:38:15.634Z,48832.22
2023-05-21T11:41:05.768Z,48836.16
2023-05-21T11:43:32.358Z,48828.31
2023-05-21T11:46:00.862Z,48865.53
2023-05-21T11:48:30.540Z,48834.19
2023-05-21T11:50:58.586Z,48851.81
2023-05-21T11:53:25.435Z,48845.94
2023-05-21T11:55:57.350Z,48851.81
2023-05-21T11:58:26.911Z,48840.06
2023-05-21T12:00:53.512Z,48808.72
2023-05-21T12:03:27.280Z,48845.94
2023-05-21T12:05:54.422Z,48832.22
2023-05-21T12:08:27.626Z,48849.88
2023-05-21T12:11:02.222Z,48840.06
2023-05-21T12:13:28.924Z,48851.81
2023-05-21T12:15:56.190Z,48828.31
2023-05-21T12:18:22.964Z,48828.31
2023-05-21T12:20:52.291Z,48840.06
2023-05-21T12:23:25.902Z,48853.78
2023-05-21T12:25:56.829Z,48859.66
2023-05-21T12:28:24.946Z,48859.66
2023-05-21T12:30:52.401Z,48851.81
2023-05-21T12:33:19.506Z,48838.09
2023-05-21T12:35:50.354Z,48847.91
2023-05-21T12:38:17.227Z,48859.66
2023-05-21T12:40:45.656Z,48826.34
2023-05-21T12:43:12.565Z,48879.25
2023-05-21T12:45:39.713Z,48859.66
2023-05-21T12:48:06.872Z,48851.81
2023-05-21T12:50:33.924Z,48849.88
2023-05-21T12:53:00.675Z,48859.66
2023-05-21T12:55:27.204Z,48887.09
2023-05-21T12:58:08.361Z,48822.44
2023-05-21T13:00:35.817Z,48836.16
2023-05-21T13:03:04.464Z,48816.56
2023-05-21T13:05:31.728Z,48824.41
2023-05-21T13:07:58.529Z,48849.88
2023-05-21T13:10:27.453Z,48845.94
2023-05-21T13:12:53.965Z,48853.78
2023-05-21T13:15:20.862Z,48838.09
2023-05-21T13:17:49.755Z,48851.81
2023-05-21T13:20:34.053Z,48861.63
2023-05-21T13:23:01.762Z,48871.41
2023-05-21T13:25:30.232Z,48859.66
2023-05-21T13:27:57.621Z,48844.00
2023-05-21T13:30:24.114Z,48879.25
2023-05-21T13:32:52.944Z,48836.16
2023-05-21T13:35:19.935Z,48844.00
2023-05-21T13:37:46.483Z,48867.50
2023-05-21T13:40:15.266Z,48867.50
2023-05-21T13:42:47.340Z,48851.81
2023-05-21T13:45:16.311Z,48851.81
2023-05-21T13:47:45.477Z,48863.56
2023-05-21T13:50:12.859Z,48828.31
2023-05-21T13:52:39.855Z,48842.03
2023-05-21T13:55:06.792Z,48832.22
2023-05-21T13:57:34.049Z,48830.28
2023-05-21T14:00:01.047Z,48859.66
2023-05-21T14:02:27.967Z,48898.84
2023-05-21T14:04:55.235Z,48836.16
2023-05-21T14:07:22.332Z,48863.56
2023-05-21T14:09:49.787Z,48844.00
2023-05-21T14:12:16.995Z,48822.44
2023-05-21T14:14:43.857Z,48857.69
2023-05-21T14:17:10.441Z,48851.81
2023-05-21T14:19:36.992Z,48871.41
2023-05-21T14:22:03.812Z,48867.50
2023-05-21T14:24:30.364Z,48820.47
2023-05-21T14:26:57.142Z,48883.16
2023-05-21T14:29:23.934Z,48867.50
2023-05-21T14:31:50.835Z,48832.22
2023-05-21T14:34:17.956Z,48820.47
2023-05-21T14:36:45.183Z,48853.78
2023-05-21T14:39:11.706Z,48851.81
2023-05-21T14:41:39.847Z,48812.63
2023-05-21T14:44:06.893Z,48840.06
2023-05-21T14:46:33.612Z,48836.16
2023-05-21T14:49:00.710Z,48863.56
2023-05-21T14:51:27.291Z,48898.84
2023-05-21T14:53:53.883Z,48840.06
2023-05-21T14:56:22.425Z,48863.56
2023-05-21T14:58:48.974Z,48840.06
2023-05-21T15:01:15.597Z,48828.31
2023-05-21T15:03:42.445Z,48865.53
2023-05-21T15:06:09.534Z,48853.78
2023-05-21T15:08:36.390Z,48847.91
2023-05-21T15:11:03.349Z,48840.06
2023-05-21T15:13:31.320Z,48812.63
2023-05-21T15:16:00.305Z,48849.88
2023-05-21T15:18:26.874Z,48853.78
2023-05-21T15:20:53.381Z,48855.75
2023-05-21T15:23:20.086Z,48838.09
2023-05-21T15:25:46.870Z,48857.69
2023-05-21T15:28:13.854Z,48879.25
2023-05-21T15:30:40.621Z,48851.81
2023-05-21T15:33:07.375Z,48855.75
2023-05-21T15:35:36.466Z,48855.75
2023-05-21T15:38:04.585Z,48855.75
2023-05-21T15:40:32.066Z,48877.28
2023-05-21T15:42:58.529Z,48871.41
2023-05-21T15:45:25.550Z,48828.31
2023-05-21T15:47:52.101Z,48855.75
2023-05-21T15:50:18.628Z,48818.53
2023-05-21T15:52:45.113Z,48808.72
2023-05-21T15:55:11.710Z,48840.06
2023-05-21T15:57:38.558Z,48851.81
2023-05-21T16:00:06.301Z,48851.81
2023-05-21T16:02:33.349Z,48855.75
2023-05-21T16:04:59.821Z,48847.91
2023-05-21T16:07:28.512Z,48849.88
2023-05-21T16:09:55.237Z,48863.56
2023-05-21T16:12:24.029Z,48820.47
2023-05-21T16:14:50.578Z,48855.75
2023-05-21T16:17:19.879Z,48824.41
2023-05-21T16:19:47.699Z,48867.50
2023-05-21T16:22:15.897Z,48853.78
2023-05-21T16:24:42.552Z,48855.75
2023-05-21T16:27:09.072Z,48847.91
2023-05-21T16:29:35.544Z,48840.06
2023-05-21T16:32:02.441Z,48830.28
2023-05-21T16:34:29.292Z,48795.00
2023-05-21T16:36:56.158Z,48808.72
2023-05-21T16:39:22.665Z,48847.91
2023-05-21T16:41:49.485Z,48847.91
2023-05-21T16:44:16.576Z,48853.78
2023-05-21T16:46:43.041Z,48836.16
2023-05-21T16:49:10.252Z,48857.69
2023-05-21T16:51:36.975Z,48818.53
2023-05-21T16:54:04.725Z,48836.16
2023-05-21T16:56:31.266Z,48824.41
2023-05-21T16:58:57.984Z,48828.31
2023-05-21T17:01:24.660Z,48836.16
2023-05-21T17:03:51.353Z,48828.31
2023-05-21T17:06:18.005Z,48851.81
2023-05-21T17:08:45.876Z,48832.22
2023-05-21T17:11:12.432Z,48836.16
2023-05-21T17:13:39.179Z,48851.81
2023-05-21T17:16:06.044Z,48840.06
2023-05-21T17:18:32.883Z,48824.41
2023-05-21T17:20:59.384Z,48820.47
2023-05-21T17:23:25.841Z,48836.16
2023-05-21T17:25:53.671Z,48816.56
2023-05-21T17:28:20.153Z,48812.63
2023-05-21T17:30:49.873Z,48832.22
2023-05-21T17:33:16.884Z,48855.75
2023-05-21T17:35:44.076Z,48836.16
2023-05-21T17:38:11.431Z,48847.91
2023-05-21T17:40:37.917Z,48810.69
2023-05-21T17:43:05.060Z,48816.56
2023-05-21T17:45:32.117Z,48849.88
2023-05-21T17:48:00.516Z,48802.84
2023-05-21T17:50:30.764Z,48822.44
2023-05-21T17:52:57.677Z,48832.22
2023-05-21T17:55:27.341Z,48832.22
2023-05-21T17:57:54.126Z,48812.63
2023-05-21T18:00:20.936Z,48816.56
2023-05-21T18:02:47.534Z,48844.00
2023-05-21T18:05:14.396Z,48818.53
2023-05-21T18:07:41.314Z,48832.22
2023-05-21T18:10:08.189Z,48847.91
2023-05-21T18:12:35.470Z,48804.81
2023-05-21T18:15:02.276Z,48840.06
2023-05-21T18:17:29.052Z,48783.25
2023-05-21T18:19:55.562Z,48796.97
2023-05-21T18:22:22.334Z,48796.97
2023-05-21T18:24:49.590Z,48806.75
2023-05-21T18:27:16.352Z,48824.41
2023-05-21T18:29:42.812Z,48796.97
2023-05-21T18:32:10.943Z,48796.97
2023-05-21T18:34:37.461Z,48785.22
2023-05-21T18:37:04.913Z,48820.47
2023-05-21T18:39:31.335Z,48785.22
2023-05-21T18:42:12.140Z,48804.81
2023-05-21T18:44:47.577Z,48804.81
2023-05-21T18:47:15.694Z,48840.06
2023-05-21T18:49:42.331Z,48789.13
2023-05-21T18:52:09.172Z,48814.59
2023-05-21T18:54:35.730Z,48785.22
2023-05-21T18:57:02.444Z,48796.97
2023-05-21T18:59:29.597Z,48816.56
2023-05-21T19:01:56.908Z,48812.63
2023-05-21T19:04:23.520Z,48789.13
2023-05-21T19:06:50.084Z,48808.72
2023-05-21T19:09:16.563Z,48822.44
2023-05-21T19:11:43.110Z,48800.88
2023-05-21T19:14:12.309Z,48840.06
2023-05-21T19:16:40.678Z,48820.47
2023-05-21T19:19:09.141Z,48810.69
2023-05-21T19:21:36.244Z,48800.88
2023-05-21T19:24:05.620Z,48793.06
2023-05-21T19:26:32.713Z,48796.97
2023-05-21T19:28:59.183Z,48793.06
2023-05-21T19:31:25.773Z,48769.53
2023-05-21T19:33:52.754Z,48824.41
2023-05-21T19:36:21.133Z,48781.31
2023-05-21T19:38:49.473Z,48808.72
2023-05-21T19:41:17.798Z,48808.72
2023-05-21T19:43:47.633Z,48777.38
2023-05-21T19:46:18.168Z,48777.38
2023-05-21T19:48:47.781Z,48785.22
2023-05-21T19:51:14.331Z,48763.66
2023-05-21T19:53:42.740Z,48789.13
2023-05-21T19:56:09.473Z,48785.22
2023-05-21T19:58:36.248Z,48781.31
2023-05-21T20:01:03.489Z,48793.06
2023-05-21T20:03:36.026Z,48769.53
2023-05-21T20:06:03.361Z,48769.53
2023-05-21T20:08:33.121Z,48777.38
2023-05-21T20:11:02.634Z,48771.50
2023-05-21T20:13:29.522Z,48781.31
2023-05-21T20:15:57.100Z,48761.72
2023-05-21T20:18:25.412Z,48789.13
2023-05-21T20:20:53.197Z,48746.03
2023-05-21T20:23:19.653Z,48777.38
2023-05-21T20:25:46.489Z,48761.72
2023-05-21T20:28:13.049Z,48765.63
2023-05-21T20:30:58.060Z,48765.63
2023-05-21T20:33:28.119Z,48746.03
2023-05-21T20:35:54.665Z,48781.31
2023-05-21T20:38:21.289Z,48775.41
2023-05-21T20:40:50.193Z,48734.28
2023-05-21T20:43:19.669Z,48765.63
2023-05-21T20:45:49.848Z,48793.06
2023-05-21T20:48:16.793Z,48793.06
2023-05-21T20:50:44.199Z,48777.38
2023-05-21T20:53:12.385Z,48746.03
2023-05-21T20:55:44.419Z,48746.03
2023-05-21T20:58:11.652Z,48785.22
2023-05-21T21:00:41.819Z,48785.22
2023-05-21T21:03:11.424Z,48767.59
2023-05-21T21:05:40.021Z,48769.53
2023-05-21T21:08:08.467Z,48734.28
2023-05-21T21:10:36.099Z,48738.19
2023-05-21T21:13:03.459Z,48777.38
2023-05-21T21:15:31.197Z,48773.47
2023-05-21T21:17:58.163Z,48765.63
2023-05-21T21:20:24.777Z,48738.19
2023-05-21T21:22:53.556Z,48742.13
2023-05-21T21:25:20.646Z,48755.84
2023-05-21T21:27:49.462Z,48726.44
2023-05-21T21:30:16.368Z,48761.72
2023-05-21T21:32:43.210Z,48771.50
2023-05-21T21:35:10.343Z,48773.47
2023-05-21T21:37:36.885Z,48730.38
2023-05-21T21:40:03.649Z,48742.13
2023-05-21T21:42:30.382Z,48769.53
2023-05-21T21:44:56.994Z,48753.88
2023-05-21T21:47:23.571Z,48746.03
2023-05-21T21:49:50.095Z,48726.44
2023-05-21T21:52:17.906Z,48746.03
2023-05-21T21:54:44.626Z,48757.78
2023-05-21T21:57:11.370Z,48746.03
2023-05-21T21:59:38.662Z,48734.28
2023-05-21T22:02:06.024Z,48734.28
2023-05-21T22:04:32.679Z,48753.88
2023-05-21T22:06:59.221Z,48742.13
2023-05-21T22:09:26.141Z,48722.53
2023-05-21T22:11:53.466Z,48753.88
2023-05-21T22:14:22.125Z,48742.13
2023-05-21T22:16:48.857Z,48787.19
2023-05-21T22:19:18.477Z,48755.84
2023-05-21T22:21:46.419Z,48753.88
2023-05-21T22:24:24.090Z,48757.78
2023-05-21T22:26:57.968Z,48740.16
2023-05-21T22:29:26.905Z,48722.53
2023-05-21T22:31:54.159Z,48742.13
2023-05-21T22:34:23.036Z,48722.53
2023-05-21T22:36:51.608Z,48734.28
2023-05-21T22:39:18.368Z,48740.16
2023-05-21T22:41:45.974Z,48702.94
2023-05-21T22:44:16.243Z,48742.13
2023-05-21T22:46:43.870Z,48742.13
2023-05-21T22:49:10.731Z,48734.28
2023-05-21T22:51:39.895Z,48734.28
2023-05-21T22:54:06.609Z,48738.19
2023-05-21T22:56:35.792Z,48746.03
2023-05-21T22:59:03.758Z,48753.88
2023-05-21T23:01:32.672Z,48742.13
2023-05-21T23:03:59.840Z,48718.59
2023-05-21T23:06:26.306Z,48757.78
2023-05-21T23:08:53.037Z,48724.50
2023-05-21T23:11:19.545Z,48722.53
2023-05-21T23:13:46.352Z,48742.13
2023-05-21T23:16:12.975Z,48769.53
2023-05-21T23:18:43.742Z,48734.28
2023-05-21T23:21:10.745Z,48738.19
2023-05-21T23:23:38.565Z,48730.38
2023-05-21T23:26:05.477Z,48755.84
2023-05-21T23:28:33.694Z,48722.53
2023-05-21T23:31:00.224Z,48753.88
2023-05-21T23:33:27.209Z,48718.59
2023-05-21T23:35:56.930Z,48742.13
2023-05-21T23:38:24.874Z,48736.25
2023-05-21T23:40:51.382Z,48730.38
2023-05-21T23:43:18.167Z,48710.78
2023-05-21T23:45:45.210Z,48755.84
2023-05-21T23:48:14.522Z,48734.28
2023-05-21T23:50:41.352Z,48718.59
2023-05-21T23:53:08.268Z,48742.13
2023-05-21T23:55:37.425Z,48726.44
2023-05-21T23:58:04.240Z,48726.44
